sensor_id;sensor_type;location;lat;lon;timestamp;pressure;altitude;pressure_sealevel;temperature;humidity
81909;BME280;71372;43.514;1.512;2023-10-13T00:01:59;100211.38;;;19.10;76.00
81909;BME280;71372;43.514;1.512;2023-10-13T00:04:25;100218.03;;;19.06;76.22
81909;BME280;71372;43.514;1.512;2023-10-13T00:06:52;100217.41;;;19.03;76.46
81909;BME280;71372;43.514;1.512;2023-10-13T00:09:19;100217.41;;;19.03;76.31
81909;BME280;71372;43.514;1.512;2023-10-13T00:11:50;100222.06;;;19.01;76.76
81909;BME280;71372;43.514;1.512;2023-10-13T00:14:19;100223.03;;;18.99;76.70
81909;BME280;71372;43.514;1.512;2023-10-13T00:16:51;100228.81;;;18.95;76.76
81909;BME280;71372;43.514;1.512;2023-10-13T00:19:36;100228.06;;;18.93;76.75
81909;BME280;71372;43.514;1.512;2023-10-13T00:22:13;100226.59;;;18.89;77.04
81909;BME280;71372;43.514;1.512;2023-10-13T00:24:43;100217.91;;;18.85;77.22
81909;BME280;71372;43.514;1.512;2023-10-13T00:27:15;100227.84;;;18.85;77.33
81909;BME280;71372;43.514;1.512;2023-10-13T00:30:02;100222.91;;;18.79;77.83
81909;BME280;71372;43.514;1.512;2023-10-13T00:32:43;100238.50;;;18.75;78.33
81909;BME280;71372;43.514;1.512;2023-10-13T00:35:12;100231.50;;;18.73;78.41
81909;BME280;71372;43.514;1.512;2023-10-13T00:37:40;100229.03;;;18.69;78.72
81909;BME280;71372;43.514;1.512;2023-10-13T00:40:11;100225.47;;;18.69;78.86
81909;BME280;71372;43.514;1.512;2023-10-13T00:42:55;100221.31;;;18.65;79.33
81909;BME280;71372;43.514;1.512;2023-10-13T00:45:33;100220.34;;;18.66;79.12
81909;BME280;71372;43.514;1.512;2023-10-13T00:47:59;100223.88;;;18.66;78.78
81909;BME280;71372;43.514;1.512;2023-10-13T00:50:27;100223.63;;;18.69;78.67
81909;BME280;71372;43.514;1.512;2023-10-13T00:52:55;100213.09;;;18.66;78.88
81909;BME280;71372;43.514;1.512;2023-10-13T00:55:22;100220.09;;;18.69;78.71
81909;BME280;71372;43.514;1.512;2023-10-13T00:57:52;100213.50;;;18.73;78.70
81909;BME280;71372;43.514;1.512;2023-10-13T01:00:20;100214.34;;;18.74;78.95
81909;BME280;71372;43.514;1.512;2023-10-13T01:02:53;100220.59;;;18.74;79.29
81909;BME280;71372;43.514;1.512;2023-10-13T01:05:25;100215.69;;;18.68;79.57
81909;BME280;71372;43.514;1.512;2023-10-13T01:07:52;100215.94;;;18.65;79.34
81909;BME280;71372;43.514;1.512;2023-10-13T01:10:21;100213.31;;;18.63;79.19
81909;BME280;71372;43.514;1.512;2023-10-13T01:12:52;100211.50;;;18.64;78.74
81909;BME280;71372;43.514;1.512;2023-10-13T01:15:18;100204.63;;;18.60;78.81
81909;BME280;71372;43.514;1.512;2023-10-13T01:17:47;100209.25;;;18.58;78.85
81909;BME280;71372;43.514;1.512;2023-10-13T01:20:14;100198.00;;;18.53;79.01
81909;BME280;71372;43.514;1.512;2023-10-13T01:22:52;100197.25;;;18.51;79.20
81909;BME280;71372;43.514;1.512;2023-10-13T01:25:23;100190.28;;;18.48;79.22
81909;BME280;71372;43.514;1.512;2023-10-13T01:27:54;100192.13;;;18.48;79.31
81909;BME280;71372;43.514;1.512;2023-10-13T01:30:20;100184.38;;;18.43;79.70
81909;BME280;71372;43.514;1.512;2023-10-13T01:32:50;100184.25;;;18.45;79.52
81909;BME280;71372;43.514;1.512;2023-10-13T01:35:17;100182.66;;;18.42;79.95
81909;BME280;71372;43.514;1.512;2023-10-13T01:38:01;100183.75;;;18.39;79.94
81909;BME280;71372;43.514;1.512;2023-10-13T01:40:27;100175.44;;;18.42;79.93
81909;BME280;71372;43.514;1.512;2023-10-13T01:42:58;100169.31;;;18.40;80.16
81909;BME280;71372;43.514;1.512;2023-10-13T01:45:23;100177.50;;;18.39;80.45
81909;BME280;71372;43.514;1.512;2023-10-13T01:47:55;100166.59;;;18.40;79.78
81909;BME280;71372;43.514;1.512;2023-10-13T01:50:22;100160.22;;;18.41;79.69
81909;BME280;71372;43.514;1.512;2023-10-13T01:52:55;100165.88;;;18.38;80.48
81909;BME280;71372;43.514;1.512;2023-10-13T01:55:43;100166.00;;;18.37;80.36
81909;BME280;71372;43.514;1.512;2023-10-13T01:58:13;100162.44;;;18.36;80.27
81909;BME280;71372;43.514;1.512;2023-10-13T02:00:44;100159.75;;;18.36;80.24
81909;BME280;71372;43.514;1.512;2023-10-13T02:03:12;100147.97;;;18.37;79.84
81909;BME280;71372;43.514;1.512;2023-10-13T02:05:45;100155.34;;;18.35;80.00
81909;BME280;71372;43.514;1.512;2023-10-13T02:08:19;100141.09;;;18.33;80.35
81909;BME280;71372;43.514;1.512;2023-10-13T02:10:52;100135.97;;;18.30;80.13
81909;BME280;71372;43.514;1.512;2023-10-13T02:13:20;100134.50;;;18.26;80.43
81909;BME280;71372;43.514;1.512;2023-10-13T02:15:49;100144.41;;;18.26;80.64
81909;BME280;71372;43.514;1.512;2023-10-13T02:18:19;100140.13;;;18.23;80.57
81909;BME280;71372;43.514;1.512;2023-10-13T02:21:03;100134.75;;;18.23;80.43
81909;BME280;71372;43.514;1.512;2023-10-13T02:23:39;100135.81;;;18.21;80.46
81909;BME280;71372;43.514;1.512;2023-10-13T02:26:26;100135.94;;;18.19;80.50
81909;BME280;71372;43.514;1.512;2023-10-13T02:29:03;100129.81;;;18.17;80.35
81909;BME280;71372;43.514;1.512;2023-10-13T02:31:36;100119.03;;;18.17;80.57
81909;BME280;71372;43.514;1.512;2023-10-13T02:34:02;100121.97;;;18.14;80.57
81909;BME280;71372;43.514;1.512;2023-10-13T02:36:36;100114.75;;;18.15;80.64
81909;BME280;71372;43.514;1.512;2023-10-13T02:39:05;100103.97;;;18.15;80.42
81909;BME280;71372;43.514;1.512;2023-10-13T02:41:34;100102.41;;;18.12;80.57
81909;BME280;71372;43.514;1.512;2023-10-13T02:44:04;100103.59;;;18.08;80.82
81909;BME280;71372;43.514;1.512;2023-10-13T02:46:45;100112.66;;;18.07;81.15
81909;BME280;71372;43.514;1.512;2023-10-13T02:49:16;100107.50;;;18.04;81.24
81909;BME280;71372;43.514;1.512;2023-10-13T02:51:45;100101.88;;;18.07;81.06
81909;BME280;71372;43.514;1.512;2023-10-13T02:54:11;100112.78;;;18.05;81.23
81909;BME280;71372;43.514;1.512;2023-10-13T02:56:44;100093.78;;;18.07;81.03
81909;BME280;71372;43.514;1.512;2023-10-13T02:59:26;100106.41;;;18.06;81.17
81909;BME280;71372;43.514;1.512;2023-10-13T03:02:07;100090.13;;;18.08;81.16
81909;BME280;71372;43.514;1.512;2023-10-13T03:04:59;100092.94;;;18.06;81.04
81909;BME280;71372;43.514;1.512;2023-10-13T03:07:25;100085.72;;;18.07;80.96
81909;BME280;71372;43.514;1.512;2023-10-13T03:09:55;100094.66;;;18.07;81.16
81909;BME280;71372;43.514;1.512;2023-10-13T03:12:25;100093.53;;;18.10;81.08
81909;BME280;71372;43.514;1.512;2023-10-13T03:14:53;100088.28;;;18.08;81.54
81909;BME280;71372;43.514;1.512;2023-10-13T03:17:29;100083.53;;;18.12;81.04
81909;BME280;71372;43.514;1.512;2023-10-13T03:20:13;100080.72;;;18.14;81.46
81909;BME280;71372;43.514;1.512;2023-10-13T03:22:41;100079.84;;;18.13;81.16
81909;BME280;71372;43.514;1.512;2023-10-13T03:25:14;100079.59;;;18.16;81.82
81909;BME280;71372;43.514;1.512;2023-10-13T03:27:50;100075.81;;;18.19;80.76
81909;BME280;71372;43.514;1.512;2023-10-13T03:30:16;100070.28;;;18.20;81.38
81909;BME280;71372;43.514;1.512;2023-10-13T03:32:43;100074.81;;;18.20;81.41
81909;BME280;71372;43.514;1.512;2023-10-13T03:35:14;100072.84;;;18.22;81.45
81909;BME280;71372;43.514;1.512;2023-10-13T03:37:53;100072.75;;;18.23;81.44
81909;BME280;71372;43.514;1.512;2023-10-13T03:40:20;100068.97;;;18.26;81.24
81909;BME280;71372;43.514;1.512;2023-10-13T03:42:50;100062.44;;;18.28;80.89
81909;BME280;71372;43.514;1.512;2023-10-13T03:45:45;100067.97;;;18.27;80.93
81909;BME280;71372;43.514;1.512;2023-10-13T03:48:15;100065.28;;;18.27;81.20
81909;BME280;71372;43.514;1.512;2023-10-13T03:50:55;100064.28;;;18.28;81.07
81909;BME280;71372;43.514;1.512;2023-10-13T03:53:35;100057.06;;;18.28;81.16
81909;BME280;71372;43.514;1.512;2023-10-13T03:56:03;100044.56;;;18.27;81.51
81909;BME280;71372;43.514;1.512;2023-10-13T03:58:41;100053.38;;;18.29;81.46
81909;BME280;71372;43.514;1.512;2023-10-13T04:01:14;100055.09;;;18.30;81.14
81909;BME280;71372;43.514;1.512;2023-10-13T04:03:43;100044.19;;;18.32;81.23
81909;BME280;71372;43.514;1.512;2023-10-13T04:06:35;100050.31;;;18.34;81.10
81909;BME280;71372;43.514;1.512;2023-10-13T04:09:16;100039.53;;;18.34;81.33
81909;BME280;71372;43.514;1.512;2023-10-13T04:12:02;100039.66;;;18.32;81.60
81909;BME280;71372;43.514;1.512;2023-10-13T04:14:36;100049.44;;;18.33;80.93
81909;BME280;71372;43.514;1.512;2023-10-13T04:17:14;100044.31;;;18.30;81.60
81909;BME280;71372;43.514;1.512;2023-10-13T04:19:41;100040.38;;;18.34;81.26
81909;BME280;71372;43.514;1.512;2023-10-13T04:22:27;100034.03;;;18.35;81.21
81909;BME280;71372;43.514;1.512;2023-10-13T04:28:05;100034.78;;;18.37;81.12
81909;BME280;71372;43.514;1.512;2023-10-13T04:30:38;100038.44;;;18.36;81.43
81909;BME280;71372;43.514;1.512;2023-10-13T04:33:31;100042.72;;;18.39;81.38
81909;BME280;71372;43.514;1.512;2023-10-13T04:36:12;100044.44;;;18.40;81.33
81909;BME280;71372;43.514;1.512;2023-10-13T04:38:55;100044.44;;;18.40;81.46
81909;BME280;71372;43.514;1.512;2023-10-13T04:41:32;100038.91;;;18.41;81.36
81909;BME280;71372;43.514;1.512;2023-10-13T04:44:08;100040.63;;;18.42;81.19
81909;BME280;71372;43.514;1.512;2023-10-13T04:47:01;100045.03;;;18.44;81.21
81909;BME280;71372;43.514;1.512;2023-10-13T04:49:29;100047.47;;;18.47;80.90
81909;BME280;71372;43.514;1.512;2023-10-13T04:52:02;100045.66;;;18.47;81.00
81909;BME280;71372;43.514;1.512;2023-10-13T04:54:49;100053.63;;;18.49;81.42
81909;BME280;71372;43.514;1.512;2023-10-13T04:57:22;100042.72;;;18.50;81.21
81909;BME280;71372;43.514;1.512;2023-10-13T04:59:58;100051.53;;;18.52;81.01
81909;BME280;71372;43.514;1.512;2023-10-13T05:02:43;100054.94;;;18.54;81.09
81909;BME280;71372;43.514;1.512;2023-10-13T05:05:28;100051.41;;;18.54;81.30
81909;BME280;71372;43.514;1.512;2023-10-13T05:08:13;100053.13;;;18.55;80.98
81909;BME280;71372;43.514;1.512;2023-10-13T05:10:57;100049.69;;;18.53;81.11
81909;BME280;71372;43.514;1.512;2023-10-13T05:13:47;100057.53;;;18.56;81.22
81909;BME280;71372;43.514;1.512;2023-10-13T05:16:31;100050.41;;;18.55;81.54
81909;BME280;71372;43.514;1.512;2023-10-13T05:19:15;100058.25;;;18.58;81.02
81909;BME280;71372;43.514;1.512;2023-10-13T05:22:00;100051.91;;;18.59;80.97
81909;BME280;71372;43.514;1.512;2023-10-13T05:24:44;100050.06;;;18.59;80.91
81909;BME280;71372;43.514;1.512;2023-10-13T05:27:29;100049.22;;;18.59;81.12
81909;BME280;71372;43.514;1.512;2023-10-13T05:30:13;100041.84;;;18.61;80.87
81909;BME280;71372;43.514;1.512;2023-10-13T05:32:58;100050.78;;;18.61;80.84
81909;BME280;71372;43.514;1.512;2023-10-13T05:35:42;100046.25;;;18.62;80.76
81909;BME280;71372;43.514;1.512;2023-10-13T05:38:26;100042.06;;;18.58;81.32
81909;BME280;71372;43.514;1.512;2023-10-13T05:41:11;100038.41;;;18.59;81.38
81909;BME280;71372;43.514;1.512;2023-10-13T05:43:55;100042.69;;;18.61;81.68
81909;BME280;71372;43.514;1.512;2023-10-13T05:46:40;100042.56;;;18.63;81.35
81909;BME280;71372;43.514;1.512;2023-10-13T05:49:15;100049.44;;;18.67;81.30
81909;BME280;71372;43.514;1.512;2023-10-13T05:51:42;100043.06;;;18.68;81.31
81909;BME280;71372;43.514;1.512;2023-10-13T05:54:08;100041.94;;;18.70;81.41
81909;BME280;71372;43.514;1.512;2023-10-13T05:56:42;100045.28;;;18.74;81.15
81909;BME280;71372;43.514;1.512;2023-10-13T05:59:28;100052.50;;;18.74;81.12
81909;BME280;71372;43.514;1.512;2023-10-13T06:02:14;100050.66;;;18.74;81.36
81909;BME280;71372;43.514;1.512;2023-10-13T06:05:25;100046.25;;;18.73;81.77
81909;BME280;71372;43.514;1.512;2023-10-13T06:08:09;100051.41;;;18.76;81.48
81909;BME280;71372;43.514;1.512;2023-10-13T06:11:01;100053.84;;;18.79;81.95
81909;BME280;71372;43.514;1.512;2023-10-13T06:13:47;100050.88;;;18.82;81.75
81909;BME280;71372;43.514;1.512;2023-10-13T06:16:31;100052.00;;;18.80;82.63
81909;BME280;71372;43.514;1.512;2023-10-13T06:19:16;100055.66;;;18.90;81.79
81909;BME280;71372;43.514;1.512;2023-10-13T06:22:00;100051.59;;;18.95;81.83
81909;BME280;71372;43.514;1.512;2023-10-13T06:24:44;100049.38;;;19.01;81.92
81909;BME280;71372;43.514;1.512;2023-10-13T06:27:29;100049.81;;;19.06;82.00
81909;BME280;71372;43.514;1.512;2023-10-13T06:30:13;100057.69;;;19.09;81.89
81909;BME280;71372;43.514;1.512;2023-10-13T06:32:39;100054.47;;;19.15;82.15
81909;BME280;71372;43.514;1.512;2023-10-13T06:35:06;100061.06;;;19.22;81.87
81909;BME280;71372;43.514;1.512;2023-10-13T06:37:44;100057.84;;;19.28;81.76
81909;BME280;71372;43.514;1.512;2023-10-13T06:40:13;100061.03;;;19.33;81.79
81909;BME280;71372;43.514;1.512;2023-10-13T06:42:57;100062.19;;;19.40;81.41
81909;BME280;71372;43.514;1.512;2023-10-13T06:45:38;100059.97;;;19.45;81.59
81909;BME280;71372;43.514;1.512;2023-10-13T06:48:05;100067.53;;;19.51;81.67
81909;BME280;71372;43.514;1.512;2023-10-13T06:50:31;100069.63;;;19.59;81.44
81909;BME280;71372;43.514;1.512;2023-10-13T06:53:04;100067.00;;;19.69;81.18
81909;BME280;71372;43.514;1.512;2023-10-13T06:55:30;100079.72;;;19.78;81.23
81909;BME280;71372;43.514;1.512;2023-10-13T06:58:06;100072.53;;;19.88;80.84
81909;BME280;71372;43.514;1.512;2023-10-13T07:00:33;100084.78;;;19.92;81.00
81909;BME280;71372;43.514;1.512;2023-10-13T07:03:01;100074.44;;;19.97;80.80
81909;BME280;71372;43.514;1.512;2023-10-13T07:05:46;100075.75;;;20.03;80.95
81909;BME280;71372;43.514;1.512;2023-10-13T07:08:14;100077.34;;;20.05;80.87
81909;BME280;71372;43.514;1.512;2023-10-13T07:10:54;100067.81;;;20.11;80.77
81909;BME280;71372;43.514;1.512;2023-10-13T07:13:39;100073.56;;;20.18;80.77
81909;BME280;71372;43.514;1.512;2023-10-13T07:16:05;100074.59;;;20.26;80.57
81909;BME280;71372;43.514;1.512;2023-10-13T07:18:38;100079.31;;;20.34;80.38
81909;BME280;71372;43.514;1.512;2023-10-13T07:21:17;100067.97;;;20.40;80.24
81909;BME280;71372;43.514;1.512;2023-10-13T07:23:50;100078.00;;;20.49;80.11
81909;BME280;71372;43.514;1.512;2023-10-13T07:26:26;100079.72;;;20.50;79.91
81909;BME280;71372;43.514;1.512;2023-10-13T07:28:54;100085.88;;;20.62;79.59
81909;BME280;71372;43.514;1.512;2023-10-13T07:31:20;100087.72;;;20.71;79.27
81909;BME280;71372;43.514;1.512;2023-10-13T07:33:47;100089.47;;;20.82;79.28
81909;BME280;71372;43.514;1.512;2023-10-13T07:36:13;100099.31;;;20.83;78.78
81909;BME280;71372;43.514;1.512;2023-10-13T07:38:46;100090.66;;;20.89;78.82
81909;BME280;71372;43.514;1.512;2023-10-13T07:41:25;100088.97;;;20.97;78.54
81909;BME280;71372;43.514;1.512;2023-10-13T07:43:56;100092.38;;;20.99;78.21
81909;BME280;71372;43.514;1.512;2023-10-13T07:46:25;100087.25;;;21.06;77.92
81909;BME280;71372;43.514;1.512;2023-10-13T07:48:57;100096.78;;;21.00;78.04
81909;BME280;71372;43.514;1.512;2023-10-13T07:51:35;100100.66;;;21.08;78.00
81909;BME280;71372;43.514;1.512;2023-10-13T07:54:15;100097.81;;;21.09;77.71
81909;BME280;71372;43.514;1.512;2023-10-13T07:56:48;100094.81;;;21.12;77.46
81909;BME280;71372;43.514;1.512;2023-10-13T07:59:13;100093.81;;;21.13;77.63
81909;BME280;71372;43.514;1.512;2023-10-13T08:01:48;100094.69;;;21.14;77.39
81909;BME280;71372;43.514;1.512;2023-10-13T08:04:34;100100.66;;;21.17;77.17
81909;BME280;71372;43.514;1.512;2023-10-13T08:07:01;100102.09;;;21.21;77.10
81909;BME280;71372;43.514;1.512;2023-10-13T08:09:41;100108.09;;;21.25;76.70
81909;BME280;71372;43.514;1.512;2023-10-13T08:12:07;100113.41;;;21.36;76.49
81909;BME280;71372;43.514;1.512;2023-10-13T08:14:38;100108.69;;;21.38;76.46
81909;BME280;71372;43.514;1.512;2023-10-13T08:17:07;100128.97;;;21.44;76.21
81909;BME280;71372;43.514;1.512;2023-10-13T08:19:35;100116.41;;;21.52;75.90
81909;BME280;71372;43.514;1.512;2023-10-13T08:22:11;100114.69;;;21.61;75.92
81909;BME280;71372;43.514;1.512;2023-10-13T08:24:40;100113.84;;;21.60;76.01
81909;BME280;71372;43.514;1.512;2023-10-13T08:27:07;100126.94;;;21.65;75.58
81909;BME280;71372;43.514;1.512;2023-10-13T08:29:52;100111.53;;;21.75;75.67
81909;BME280;71372;43.514;1.512;2023-10-13T08:32:25;100117.25;;;21.92;75.13
81909;BME280;71372;43.514;1.512;2023-10-13T08:34:55;100108.69;;;22.06;74.85
81909;BME280;71372;43.514;1.512;2023-10-13T08:37:21;100114.66;;;22.19;74.46
81909;BME280;71372;43.514;1.512;2023-10-13T08:39:51;100107.72;;;22.34;74.04
81909;BME280;71372;43.514;1.512;2023-10-13T08:42:31;100099.84;;;22.51;74.05
81909;BME280;71372;43.514;1.512;2023-10-13T08:45:14;100097.91;;;22.61;73.00
81909;BME280;71372;43.514;1.512;2023-10-13T08:47:59;100089.03;;;22.68;72.89
81909;BME280;71372;43.514;1.512;2023-10-13T08:50:35;100090.97;;;22.86;72.57
81909;BME280;71372;43.514;1.512;2023-10-13T08:53:18;100084.56;;;23.04;72.74
81909;BME280;71372;43.514;1.512;2023-10-13T08:56:03;100083.81;;;23.12;71.57
81909;BME280;71372;43.514;1.512;2023-10-13T08:58:37;100086.13;;;23.25;71.43
81909;BME280;71372;43.514;1.512;2023-10-13T09:04:14;100081.50;;;23.35;70.60
81909;BME280;71372;43.514;1.512;2023-10-13T09:06:51;100091.50;;;23.52;69.87
81909;BME280;71372;43.514;1.512;2023-10-13T09:09:32;100074.00;;;23.55;69.64
81909;BME280;71372;43.514;1.512;2023-10-13T09:14:41;100075.97;;;23.62;69.36
81909;BME280;71372;43.514;1.512;2023-10-13T09:17:12;100084.50;;;23.68;68.82
81909;BME280;71372;43.514;1.512;2023-10-13T09:19:56;100075.59;;;23.57;67.70
81909;BME280;71372;43.514;1.512;2023-10-13T09:22:22;100073.59;;;23.59;67.94
81909;BME280;71372;43.514;1.512;2023-10-13T09:24:57;100080.09;;;23.67;67.84
81909;BME280;71372;43.514;1.512;2023-10-13T09:27:32;100070.47;;;23.72;67.59
81909;BME280;71372;43.514;1.512;2023-10-13T09:30:00;100077.69;;;23.81;67.76
81909;BME280;71372;43.514;1.512;2023-10-13T09:32:34;100074.72;;;23.75;67.36
81909;BME280;71372;43.514;1.512;2023-10-13T09:35:19;100074.47;;;23.86;66.62
81909;BME280;71372;43.514;1.512;2023-10-13T09:37:49;100077.25;;;23.94;66.76
81909;BME280;71372;43.514;1.512;2023-10-13T09:40:17;100086.84;;;24.06;66.24
81909;BME280;71372;43.514;1.512;2023-10-13T09:43:00;100079.06;;;24.11;66.03
81909;BME280;71372;43.514;1.512;2023-10-13T09:45:32;100076.59;;;24.26;66.13
81909;BME280;71372;43.514;1.512;2023-10-13T09:48:10;100053.56;;;24.38;65.78
81909;BME280;71372;43.514;1.512;2023-10-13T09:50:44;100070.09;;;24.45;65.29
81909;BME280;71372;43.514;1.512;2023-10-13T09:53:12;100069.41;;;24.43;65.37
81909;BME280;71372;43.514;1.512;2023-10-13T09:55:46;100080.34;;;24.51;64.40
81909;BME280;71372;43.514;1.512;2023-10-13T09:58:14;100073.91;;;24.52;64.50
81909;BME280;71372;43.514;1.512;2023-10-13T10:00:50;100080.72;;;24.56;64.39
81909;BME280;71372;43.514;1.512;2023-10-13T10:03:31;100081.91;;;24.62;63.92
81909;BME280;71372;43.514;1.512;2023-10-13T10:06:01;100079.03;;;24.63;63.53
81909;BME280;71372;43.514;1.512;2023-10-13T10:08:34;100079.44;;;24.76;63.01
81909;BME280;71372;43.514;1.512;2023-10-13T10:17:04;100070.06;;;25.29;61.38
81909;BME280;71372;43.514;1.512;2023-10-13T10:19:50;100071.09;;;25.36;60.70
81909;BME280;71372;43.514;1.512;2023-10-13T10:22:32;100077.25;;;25.47;61.04
81909;BME280;71372;43.514;1.512;2023-10-13T10:25:04;100076.91;;;25.50;60.96
81909;BME280;71372;43.514;1.512;2023-10-13T10:27:40;100068.34;;;25.45;60.51
81909;BME280;71372;43.514;1.512;2023-10-13T10:30:07;100071.09;;;25.45;60.06
81909;BME280;71372;43.514;1.512;2023-10-13T10:32:38;100061.91;;;25.46;59.74
81909;BME280;71372;43.514;1.512;2023-10-13T10:35:08;100065.28;;;25.40;59.41
81909;BME280;71372;43.514;1.512;2023-10-13T10:37:41;100062.75;;;25.46;59.12
81909;BME280;71372;43.514;1.512;2023-10-13T10:40:14;100064.63;;;25.54;58.77
81909;BME280;71372;43.514;1.512;2023-10-13T10:42:59;100065.84;;;25.59;58.87
81909;BME280;71372;43.514;1.512;2023-10-13T10:45:37;100056.78;;;25.67;58.80
81909;BME280;71372;43.514;1.512;2023-10-13T10:48:12;100066.38;;;25.71;58.75
81909;BME280;71372;43.514;1.512;2023-10-13T10:51:04;100070.44;;;25.75;56.97
81909;BME280;71372;43.514;1.512;2023-10-13T10:53:39;100068.41;;;25.85;58.15
81909;BME280;71372;43.514;1.512;2023-10-13T10:56:13;100068.41;;;25.93;57.93
81909;BME280;71372;43.514;1.512;2023-10-13T10:58:46;100068.72;;;25.99;57.66
81909;BME280;71372;43.514;1.512;2023-10-13T11:01:12;100069.38;;;26.17;57.76
81909;BME280;71372;43.514;1.512;2023-10-13T11:03:57;100079.78;;;26.21;57.04
81909;BME280;71372;43.514;1.512;2023-10-13T11:06:27;100062.84;;;26.34;56.83
81909;BME280;71372;43.514;1.512;2023-10-13T11:09:05;100078.88;;;26.45;56.06
81909;BME280;71372;43.514;1.512;2023-10-13T11:11:47;100075.59;;;26.58;55.85
81909;BME280;71372;43.514;1.512;2023-10-13T11:14:33;100061.84;;;26.74;55.75
81909;BME280;71372;43.514;1.512;2023-10-13T11:17:00;100058.97;;;26.76;55.41
81909;BME280;71372;43.514;1.512;2023-10-13T11:19:36;100063.69;;;26.82;54.69
81909;BME280;71372;43.514;1.512;2023-10-13T11:22:13;100054.16;;;26.78;54.20
81909;BME280;71372;43.514;1.512;2023-10-13T11:24:56;100041.44;;;26.93;55.32
81909;BME280;71372;43.514;1.512;2023-10-13T11:27:31;100053.03;;;26.95;54.56
81909;BME280;71372;43.514;1.512;2023-10-13T11:30:11;100037.84;;;26.93;54.73
81909;BME280;71372;43.514;1.512;2023-10-13T11:32:41;100039.56;;;26.94;55.31
81909;BME280;71372;43.514;1.512;2023-10-13T11:35:09;100035.81;;;26.87;54.60
81909;BME280;71372;43.514;1.512;2023-10-13T11:37:47;100031.53;;;26.92;54.98
81909;BME280;71372;43.514;1.512;2023-10-13T11:40:23;100026.06;;;26.92;54.59
81909;BME280;71372;43.514;1.512;2023-10-13T11:43:07;100032.19;;;27.02;54.74
81909;BME280;71372;43.514;1.512;2023-10-13T11:45:47;100033.53;;;27.06;54.42
81909;BME280;71372;43.514;1.512;2023-10-13T11:48:42;100022.41;;;27.08;53.97
81909;BME280;71372;43.514;1.512;2023-10-13T11:51:11;100023.06;;;27.10;53.91
81909;BME280;71372;43.514;1.512;2023-10-13T11:53:46;100021.28;;;27.02;53.69
81909;BME280;71372;43.514;1.512;2023-10-13T11:56:21;100022.88;;;26.89;53.91
81909;BME280;71372;43.514;1.512;2023-10-13T11:58:47;100019.84;;;26.75;54.06
81909;BME280;71372;43.514;1.512;2023-10-13T12:01:14;100015.81;;;26.63;53.77
81909;BME280;71372;43.514;1.512;2023-10-13T12:03:44;100015.13;;;26.61;54.14
81909;BME280;71372;43.514;1.512;2023-10-13T12:06:30;100014.69;;;26.49;54.50
81909;BME280;71372;43.514;1.512;2023-10-13T12:09:10;100005.47;;;26.50;54.80
81909;BME280;71372;43.514;1.512;2023-10-13T12:12:04;100003.72;;;26.58;54.86
81909;BME280;71372;43.514;1.512;2023-10-13T12:14:30;100005.25;;;26.60;54.48
81909;BME280;71372;43.514;1.512;2023-10-13T12:17:03;100004.88;;;26.63;53.79
81909;BME280;71372;43.514;1.512;2023-10-13T12:19:30;100004.75;;;26.57;53.22
81909;BME280;71372;43.514;1.512;2023-10-13T12:21:57;99989.72;;;26.61;53.44
81909;BME280;71372;43.514;1.512;2023-10-13T12:24:24;99998.94;;;26.60;53.61
81909;BME280;71372;43.514;1.512;2023-10-13T12:27:06;99990.03;;;26.66;53.24
81909;BME280;71372;43.514;1.512;2023-10-13T12:29:51;99995.09;;;26.77;53.50
81909;BME280;71372;43.514;1.512;2023-10-13T12:32:19;99987.50;;;26.87;53.08
81909;BME280;71372;43.514;1.512;2023-10-13T12:34:56;99983.31;;;26.99;52.36
81909;BME280;71372;43.514;1.512;2023-10-13T12:37:42;99980.19;;;27.10;52.47
81909;BME280;71372;43.514;1.512;2023-10-13T12:40:16;99971.28;;;27.17;51.83
81909;BME280;71372;43.514;1.512;2023-10-13T12:43:00;99970.25;;;27.18;51.36
81909;BME280;71372;43.514;1.512;2023-10-13T12:45:46;99962.81;;;27.26;51.87
81909;BME280;71372;43.514;1.512;2023-10-13T12:48:32;99954.91;;;27.31;51.78
81909;BME280;71372;43.514;1.512;2023-10-13T12:51:17;99954.38;;;27.36;51.09
81909;BME280;71372;43.514;1.512;2023-10-13T12:53:48;99960.97;;;27.42;50.42
81909;BME280;71372;43.514;1.512;2023-10-13T12:56:18;99956.91;;;27.37;50.66
81909;BME280;71372;43.514;1.512;2023-10-13T12:58:54;99952.72;;;27.50;49.68
81909;BME280;71372;43.514;1.512;2023-10-13T13:01:26;99954.41;;;27.51;49.23
81909;BME280;71372;43.514;1.512;2023-10-13T13:03:59;99955.00;;;27.61;49.74
81909;BME280;71372;43.514;1.512;2023-10-13T13:06:26;99940.03;;;27.72;49.39
81909;BME280;71372;43.514;1.512;2023-10-13T13:08:52;99942.78;;;27.72;48.75
81909;BME280;71372;43.514;1.512;2023-10-13T13:11:19;99943.50;;;27.65;49.20
81909;BME280;71372;43.514;1.512;2023-10-13T13:13:45;99937.00;;;27.66;49.56
81909;BME280;71372;43.514;1.512;2023-10-13T13:16:14;99928.47;;;27.61;48.75
81909;BME280;71372;43.514;1.512;2023-10-13T13:18:40;99928.16;;;27.56;49.07
81909;BME280;71372;43.514;1.512;2023-10-13T13:21:06;99933.63;;;27.42;49.24
81909;BME280;71372;43.514;1.512;2023-10-13T13:23:32;99939.94;;;27.42;49.35
81909;BME280;71372;43.514;1.512;2023-10-13T13:26:00;99937.22;;;27.42;49.18
81909;BME280;71372;43.514;1.512;2023-10-13T13:28:26;99931.66;;;27.50;49.05
81909;BME280;71372;43.514;1.512;2023-10-13T13:30:55;99932.72;;;27.64;49.00
81909;BME280;71372;43.514;1.512;2023-10-13T13:33:21;99929.56;;;27.75;48.33
81909;BME280;71372;43.514;1.512;2023-10-13T13:35:55;99930.97;;;27.86;48.43
81909;BME280;71372;43.514;1.512;2023-10-13T13:38:21;99923.03;;;27.91;48.16
81909;BME280;71372;43.514;1.512;2023-10-13T13:40:53;99927.28;;;27.93;47.77
81909;BME280;71372;43.514;1.512;2023-10-13T13:43:22;99918.97;;;28.02;47.61
81909;BME280;71372;43.514;1.512;2023-10-13T13:46:04;99922.72;;;28.15;47.42